Phillips Ranch, California
Current Conditions -  °F | °C
As of 7:53 AM on Sunday 21 Dec 2014 (Local Time) from KCNO Reporting Station
Haze Haze  
Wind Chill: 46°   Ceiling: 20000
Heat Index: 46°   Visibility: 1mi
Dew Point: 45°   Wind: 3mph
Humidity: 96%   Direction: 30°NNE
Pressure: 30.17"   Gusts: NA
Location:  34.0419°N, 117.754°W
Report Text: KCNO 211553Z 03003KT 1SM BR OVC200 08/07 A3017 RMK AO2 SLP215 T00780072
Loading
Personal Weather Stations






























Interactive Weather Map New forecast layout! Learn more

10-Day Weather Forecast

Advertisements
Track Severe Weather on mobile